createdAt,value
2018-05-03T15:44:10.108Z,2930.63
2018-05-03T15:45:10.082Z,2986.88
2018-05-03T15:46:10.064Z,2958.75
2018-05-03T15:47:10.051Z,3330.00
2018-05-03T15:48:10.033Z,3352.50
2018-05-03T15:49:10.022Z,3048.75
2018-05-03T15:50:10.102Z,2761.88
2018-05-03T15:51:09.999Z,2559.38
2018-05-03T15:52:09.983Z,2435.63
2018-05-03T15:53:09.974Z,2373.75
2018-05-03T15:54:09.962Z,2435.63
2018-05-03T15:55:09.966Z,2446.88
2018-05-03T15:56:10.006Z,2401.88
2018-05-03T15:59:31.532Z,2750.63
2018-05-03T16:00:31.532Z,3020.63
2018-05-03T16:01:31.558Z,3217.50
2018-05-03T16:02:31.499Z,3054.38
2018-05-03T16:03:31.488Z,3003.75
2018-05-03T16:04:31.479Z,3020.63
2018-05-03T16:05:31.471Z,2896.88
2018-05-03T16:06:31.470Z,2823.75
2018-05-03T16:07:31.515Z,3020.63
2018-05-03T16:08:31.441Z,2913.75
2018-05-03T16:09:31.434Z,2806.88
2018-05-03T16:10:31.425Z,2880.00
2018-05-03T16:11:31.441Z,2919.38
2018-05-03T16:12:31.406Z,2953.13
2018-05-03T16:13:31.400Z,2615.63
2018-05-03T16:14:31.390Z,2553.75
2018-05-03T16:15:31.385Z,2621.25
2018-05-03T16:16:31.373Z,2666.25
2018-05-03T16:17:31.379Z,2598.75
2018-05-03T16:18:31.361Z,2458.13
2018-05-03T16:19:31.351Z,2317.50
2018-05-03T16:20:31.359Z,2205.00
2018-05-03T16:21:31.332Z,2311.88
2018-05-03T16:22:31.384Z,2328.75
2018-05-03T16:23:31.317Z,2289.38
2018-05-03T16:24:31.314Z,2103.75
2018-05-03T16:25:31.304Z,2165.63
2018-05-03T16:26:31.298Z,2165.63
2018-05-03T16:27:31.286Z,2115.00
2018-05-03T16:28:31.285Z,2070.00
2018-05-03T16:29:31.265Z,2041.88
2018-05-03T16:30:31.263Z,2036.25
2018-05-03T16:31:31.250Z,2092.50
2018-05-03T16:32:31.237Z,2047.50
2018-05-03T16:33:31.252Z,1963.13
2018-05-03T16:34:31.235Z,1912.50
2018-05-03T16:54:15.428Z,1327.50
2018-05-03T16:55:15.463Z,1366.88
2018-05-03T16:56:15.393Z,1496.25
2018-05-03T16:57:15.638Z,1080.00
2018-05-03T16:58:15.369Z,1485.00
2018-05-03T16:59:15.435Z,1636.88
2018-05-03T17:00:15.347Z,1625.63
2018-05-03T17:01:15.334Z,1586.25
2018-05-03T17:02:15.322Z,1558.13
2018-05-03T17:03:15.320Z,1603.13
2018-05-03T17:04:15.303Z,1546.88
2018-05-03T17:05:15.288Z,1473.75
2018-05-03T17:06:15.279Z,1344.38
2018-05-03T17:07:15.268Z,1305.00
